sensor_id;sensor_type;location;lat;lon;timestamp;P1;durP1;ratioP1;P2;durP2;ratioP2
20391;SDS011;10355;53.688;10.078;2023-03-14T00:01:57;4.35;;;1.30;;
20391;SDS011;10355;53.688;10.078;2023-03-14T00:04:39;4.88;;;1.35;;
20391;SDS011;10355;53.688;10.078;2023-03-14T00:07:23;3.38;;;1.35;;
20391;SDS011;10355;53.688;10.078;2023-03-14T00:10:07;3.65;;;1.48;;
20391;SDS011;10355;53.688;10.078;2023-03-14T00:12:50;4.78;;;1.23;;
20391;SDS011;10355;53.688;10.078;2023-03-14T00:15:33;4.95;;;1.35;;
20391;SDS011;10355;53.688;10.078;2023-03-14T00:18:16;6.60;;;1.48;;
20391;SDS011;10355;53.688;10.078;2023-03-14T00:21:01;6.88;;;1.42;;
20391;SDS011;10355;53.688;10.078;2023-03-14T00:23:45;5.72;;;1.60;;
20391;SDS011;10355;53.688;10.078;2023-03-14T00:26:28;3.65;;;1.35;;
20391;SDS011;10355;53.688;10.078;2023-03-14T00:29:11;3.45;;;1.33;;
20391;SDS011;10355;53.688;10.078;2023-03-14T00:31:53;4.47;;;1.38;;
20391;SDS011;10355;53.688;10.078;2023-03-14T00:34:36;4.07;;;1.40;;
20391;SDS011;10355;53.688;10.078;2023-03-14T00:37:19;3.75;;;1.48;;
20391;SDS011;10355;53.688;10.078;2023-03-14T00:40:03;4.07;;;1.40;;
20391;SDS011;10355;53.688;10.078;2023-03-14T00:42:47;6.05;;;1.80;;
20391;SDS011;10355;53.688;10.078;2023-03-14T00:45:30;5.28;;;1.60;;
20391;SDS011;10355;53.688;10.078;2023-03-14T00:48:14;5.32;;;1.58;;
20391;SDS011;10355;53.688;10.078;2023-03-14T00:50:57;2.67;;;1.30;;
20391;SDS011;10355;53.688;10.078;2023-03-14T00:53:40;3.30;;;1.33;;
20391;SDS011;10355;53.688;10.078;2023-03-14T00:56:24;4.50;;;1.40;;
20391;SDS011;10355;53.688;10.078;2023-03-14T00:59:06;6.70;;;1.52;;
20391;SDS011;10355;53.688;10.078;2023-03-14T01:01:49;5.15;;;1.42;;
20391;SDS011;10355;53.688;10.078;2023-03-14T01:04:33;8.23;;;1.58;;
20391;SDS011;10355;53.688;10.078;2023-03-14T01:07:16;6.20;;;1.40;;
20391;SDS011;10355;53.688;10.078;2023-03-14T01:09:58;7.00;;;1.50;;
20391;SDS011;10355;53.688;10.078;2023-03-14T01:12:42;6.90;;;1.60;;
20391;SDS011;10355;53.688;10.078;2023-03-14T01:15:25;5.45;;;1.48;;
20391;SDS011;10355;53.688;10.078;2023-03-14T01:18:08;3.70;;;1.17;;
20391;SDS011;10355;53.688;10.078;2023-03-14T01:20:50;3.45;;;1.40;;
20391;SDS011;10355;53.688;10.078;2023-03-14T01:23:33;7.80;;;1.70;;
20391;SDS011;10355;53.688;10.078;2023-03-14T01:26:16;6.32;;;1.40;;
20391;SDS011;10355;53.688;10.078;2023-03-14T01:29:02;3.00;;;1.25;;
20391;SDS011;10355;53.688;10.078;2023-03-14T01:31:48;5.93;;;1.60;;
20391;SDS011;10355;53.688;10.078;2023-03-14T01:34:30;5.85;;;1.60;;
20391;SDS011;10355;53.688;10.078;2023-03-14T01:37:13;11.00;;;1.95;;
20391;SDS011;10355;53.688;10.078;2023-03-14T01:39:56;8.90;;;1.70;;
20391;SDS011;10355;53.688;10.078;2023-03-14T01:42:43;4.70;;;1.55;;
20391;SDS011;10355;53.688;10.078;2023-03-14T01:48:31;6.47;;;1.67;;
20391;SDS011;10355;53.688;10.078;2023-03-14T01:51:16;4.80;;;1.70;;
20391;SDS011;10355;53.688;10.078;2023-03-14T01:54:02;4.97;;;1.70;;
20391;SDS011;10355;53.688;10.078;2023-03-14T01:56:48;3.28;;;1.45;;
20391;SDS011;10355;53.688;10.078;2023-03-14T01:59:33;5.95;;;1.67;;
20391;SDS011;10355;53.688;10.078;2023-03-14T02:02:16;6.10;;;1.67;;
20391;SDS011;10355;53.688;10.078;2023-03-14T02:05:00;6.22;;;1.73;;
20391;SDS011;10355;53.688;10.078;2023-03-14T02:07:48;6.25;;;1.40;;
20391;SDS011;10355;53.688;10.078;2023-03-14T02:10:37;8.32;;;1.60;;
20391;SDS011;10355;53.688;10.078;2023-03-14T02:13:22;6.80;;;1.67;;
20391;SDS011;10355;53.688;10.078;2023-03-14T02:16:18;4.20;;;1.50;;
20391;SDS011;10355;53.688;10.078;2023-03-14T02:19:24;5.40;;;1.80;;
20391;SDS011;10355;53.688;10.078;2023-03-14T02:22:38;4.30;;;1.40;;
20391;SDS011;10355;53.688;10.078;2023-03-14T02:25:24;6.95;;;1.70;;
20391;SDS011;10355;53.688;10.078;2023-03-14T02:28:11;5.07;;;1.70;;
20391;SDS011;10355;53.688;10.078;2023-03-14T02:30:55;5.20;;;1.55;;
20391;SDS011;10355;53.688;10.078;2023-03-14T02:33:38;5.25;;;1.70;;
20391;SDS011;10355;53.688;10.078;2023-03-14T02:36:21;4.03;;;1.85;;
20391;SDS011;10355;53.688;10.078;2023-03-14T02:39:06;7.78;;;1.85;;
20391;SDS011;10355;53.688;10.078;2023-03-14T02:41:55;6.38;;;1.65;;
20391;SDS011;10355;53.688;10.078;2023-03-14T02:44:48;6.10;;;1.70;;
20391;SDS011;10355;53.688;10.078;2023-03-14T02:47:31;10.20;;;1.80;;
20391;SDS011;10355;53.688;10.078;2023-03-14T02:50:14;3.20;;;1.30;;
20391;SDS011;10355;53.688;10.078;2023-03-14T02:52:58;4.68;;;1.55;;
20391;SDS011;10355;53.688;10.078;2023-03-14T02:55:44;5.25;;;1.55;;
20391;SDS011;10355;53.688;10.078;2023-03-14T02:58:27;6.93;;;1.38;;
20391;SDS011;10355;53.688;10.078;2023-03-14T03:01:18;3.88;;;1.67;;
20391;SDS011;10355;53.688;10.078;2023-03-14T03:04:01;4.88;;;1.80;;
20391;SDS011;10355;53.688;10.078;2023-03-14T03:06:44;2.88;;;1.50;;
20391;SDS011;10355;53.688;10.078;2023-03-14T03:09:27;3.38;;;1.42;;
20391;SDS011;10355;53.688;10.078;2023-03-14T03:12:10;6.03;;;1.67;;
20391;SDS011;10355;53.688;10.078;2023-03-14T03:14:53;5.40;;;1.92;;
20391;SDS011;10355;53.688;10.078;2023-03-14T03:17:37;6.45;;;1.75;;
20391;SDS011;10355;53.688;10.078;2023-03-14T03:20:20;6.55;;;1.92;;
20391;SDS011;10355;53.688;10.078;2023-03-14T03:23:02;4.38;;;1.60;;
20391;SDS011;10355;53.688;10.078;2023-03-14T03:25:47;4.63;;;1.75;;
20391;SDS011;10355;53.688;10.078;2023-03-14T03:28:30;4.05;;;1.50;;
20391;SDS011;10355;53.688;10.078;2023-03-14T03:31:13;4.43;;;1.63;;
20391;SDS011;10355;53.688;10.078;2023-03-14T03:33:58;3.42;;;1.52;;
20391;SDS011;10355;53.688;10.078;2023-03-14T03:36:41;6.50;;;1.95;;
20391;SDS011;10355;53.688;10.078;2023-03-14T03:39:25;4.75;;;1.50;;
20391;SDS011;10355;53.688;10.078;2023-03-14T03:42:09;3.45;;;1.80;;
20391;SDS011;10355;53.688;10.078;2023-03-14T03:44:52;1.90;;;1.40;;
20391;SDS011;10355;53.688;10.078;2023-03-14T03:47:36;7.60;;;1.83;;
20391;SDS011;10355;53.688;10.078;2023-03-14T03:50:20;9.23;;;2.45;;
20391;SDS011;10355;53.688;10.078;2023-03-14T03:53:03;3.00;;;1.52;;
20391;SDS011;10355;53.688;10.078;2023-03-14T03:55:45;5.50;;;1.90;;
20391;SDS011;10355;53.688;10.078;2023-03-14T03:58:28;3.72;;;1.52;;
20391;SDS011;10355;53.688;10.078;2023-03-14T04:01:11;4.32;;;1.63;;
20391;SDS011;10355;53.688;10.078;2023-03-14T04:03:54;3.78;;;1.50;;
20391;SDS011;10355;53.688;10.078;2023-03-14T04:06:38;5.03;;;1.67;;
20391;SDS011;10355;53.688;10.078;2023-03-14T04:09:23;4.70;;;1.55;;
20391;SDS011;10355;53.688;10.078;2023-03-14T04:12:24;5.57;;;1.63;;
20391;SDS011;10355;53.688;10.078;2023-03-14T04:15:15;5.20;;;1.70;;
20391;SDS011;10355;53.688;10.078;2023-03-14T04:18:01;5.43;;;1.63;;
20391;SDS011;10355;53.688;10.078;2023-03-14T04:20:45;5.53;;;1.58;;
20391;SDS011;10355;53.688;10.078;2023-03-14T04:23:30;5.80;;;1.70;;
20391;SDS011;10355;53.688;10.078;2023-03-14T04:26:12;8.80;;;1.88;;
20391;SDS011;10355;53.688;10.078;2023-03-14T04:28:55;5.63;;;1.50;;
20391;SDS011;10355;53.688;10.078;2023-03-14T04:31:38;6.18;;;1.55;;
20391;SDS011;10355;53.688;10.078;2023-03-14T04:34:20;5.68;;;1.80;;
20391;SDS011;10355;53.688;10.078;2023-03-14T04:37:07;5.00;;;1.58;;
20391;SDS011;10355;53.688;10.078;2023-03-14T04:39:55;5.53;;;1.60;;
20391;SDS011;10355;53.688;10.078;2023-03-14T04:42:44;5.45;;;1.65;;
20391;SDS011;10355;53.688;10.078;2023-03-14T04:45:28;7.25;;;1.83;;
20391;SDS011;10355;53.688;10.078;2023-03-14T04:48:13;4.45;;;1.80;;
20391;SDS011;10355;53.688;10.078;2023-03-14T04:50:56;3.90;;;1.70;;
20391;SDS011;10355;53.688;10.078;2023-03-14T04:53:39;5.07;;;1.75;;
20391;SDS011;10355;53.688;10.078;2023-03-14T04:56:26;2.60;;;0.90;;
20391;SDS011;10355;53.688;10.078;2023-03-14T04:59:10;2.80;;;0.80;;
20391;SDS011;10355;53.688;10.078;2023-03-14T05:01:55;2.53;;;1.00;;
20391;SDS011;10355;53.688;10.078;2023-03-14T05:04:56;3.63;;;0.93;;
20391;SDS011;10355;53.688;10.078;2023-03-14T05:07:57;2.25;;;0.80;;
20391;SDS011;10355;53.688;10.078;2023-03-14T05:10:54;1.70;;;0.63;;
20391;SDS011;10355;53.688;10.078;2023-03-14T05:14:08;0.77;;;0.50;;
20391;SDS011;10355;53.688;10.078;2023-03-14T05:17:09;1.92;;;0.50;;
20391;SDS011;10355;53.688;10.078;2023-03-14T05:20:02;1.33;;;0.57;;
20391;SDS011;10355;53.688;10.078;2023-03-14T05:23:04;1.85;;;0.70;;
20391;SDS011;10355;53.688;10.078;2023-03-14T05:25:59;1.23;;;0.50;;
20391;SDS011;10355;53.688;10.078;2023-03-14T05:28:52;2.45;;;0.80;;
20391;SDS011;10355;53.688;10.078;2023-03-14T05:32:00;2.28;;;0.50;;
20391;SDS011;10355;53.688;10.078;2023-03-14T05:35:12;2.55;;;0.70;;
20391;SDS011;10355;53.688;10.078;2023-03-14T05:38:11;1.83;;;0.70;;
20391;SDS011;10355;53.688;10.078;2023-03-14T05:41:04;2.28;;;0.63;;
20391;SDS011;10355;53.688;10.078;2023-03-14T05:43:50;1.42;;;0.60;;
20391;SDS011;10355;53.688;10.078;2023-03-14T05:46:45;2.10;;;0.70;;
20391;SDS011;10355;53.688;10.078;2023-03-14T05:49:48;1.95;;;0.80;;
20391;SDS011;10355;53.688;10.078;2023-03-14T05:52:51;1.20;;;0.77;;
20391;SDS011;10355;53.688;10.078;2023-03-14T05:55:55;3.65;;;0.77;;
20391;SDS011;10355;53.688;10.078;2023-03-14T05:58:57;2.65;;;1.08;;
20391;SDS011;10355;53.688;10.078;2023-03-14T06:01:48;2.50;;;0.98;;
20391;SDS011;10355;53.688;10.078;2023-03-14T06:04:34;2.70;;;1.10;;
20391;SDS011;10355;53.688;10.078;2023-03-14T06:07:18;1.48;;;1.02;;
20391;SDS011;10355;53.688;10.078;2023-03-14T06:10:01;1.70;;;1.00;;
20391;SDS011;10355;53.688;10.078;2023-03-14T06:12:44;3.97;;;1.20;;
20391;SDS011;10355;53.688;10.078;2023-03-14T06:15:27;2.60;;;1.40;;
20391;SDS011;10355;53.688;10.078;2023-03-14T06:18:10;4.20;;;1.35;;
20391;SDS011;10355;53.688;10.078;2023-03-14T06:20:54;3.67;;;1.42;;
20391;SDS011;10355;53.688;10.078;2023-03-14T06:23:41;2.80;;;1.27;;
20391;SDS011;10355;53.688;10.078;2023-03-14T06:26:24;3.65;;;1.50;;
20391;SDS011;10355;53.688;10.078;2023-03-14T06:29:07;3.38;;;1.67;;
20391;SDS011;10355;53.688;10.078;2023-03-14T06:31:50;5.15;;;1.85;;
20391;SDS011;10355;53.688;10.078;2023-03-14T06:34:34;3.85;;;1.75;;
20391;SDS011;10355;53.688;10.078;2023-03-14T06:37:17;3.30;;;1.60;;
20391;SDS011;10355;53.688;10.078;2023-03-14T06:40:04;3.53;;;1.80;;
20391;SDS011;10355;53.688;10.078;2023-03-14T06:43:11;3.67;;;1.60;;
20391;SDS011;10355;53.688;10.078;2023-03-14T06:45:57;4.82;;;1.80;;
20391;SDS011;10355;53.688;10.078;2023-03-14T06:48:39;2.40;;;1.88;;
20391;SDS011;10355;53.688;10.078;2023-03-14T06:51:22;4.03;;;1.95;;
20391;SDS011;10355;53.688;10.078;2023-03-14T06:54:05;4.75;;;1.77;;
20391;SDS011;10355;53.688;10.078;2023-03-14T06:56:50;4.55;;;1.90;;
20391;SDS011;10355;53.688;10.078;2023-03-14T06:59:33;4.32;;;1.60;;
20391;SDS011;10355;53.688;10.078;2023-03-14T07:02:16;3.65;;;1.65;;
20391;SDS011;10355;53.688;10.078;2023-03-14T07:04:58;2.92;;;1.70;;
20391;SDS011;10355;53.688;10.078;2023-03-14T07:07:43;4.22;;;1.73;;
20391;SDS011;10355;53.688;10.078;2023-03-14T07:10:26;4.80;;;1.73;;
20391;SDS011;10355;53.688;10.078;2023-03-14T07:13:10;3.47;;;1.60;;
20391;SDS011;10355;53.688;10.078;2023-03-14T07:16:03;4.18;;;2.13;;
20391;SDS011;10355;53.688;10.078;2023-03-14T07:18:46;3.80;;;1.80;;
20391;SDS011;10355;53.688;10.078;2023-03-14T07:21:31;5.95;;;1.67;;
20391;SDS011;10355;53.688;10.078;2023-03-14T07:24:19;3.60;;;1.55;;
20391;SDS011;10355;53.688;10.078;2023-03-14T07:27:03;6.68;;;1.83;;
20391;SDS011;10355;53.688;10.078;2023-03-14T07:29:47;3.80;;;1.20;;
20391;SDS011;10355;53.688;10.078;2023-03-14T07:32:29;4.82;;;1.40;;
20391;SDS011;10355;53.688;10.078;2023-03-14T07:35:12;4.28;;;1.20;;
20391;SDS011;10355;53.688;10.078;2023-03-14T07:37:56;4.43;;;1.20;;
20391;SDS011;10355;53.688;10.078;2023-03-14T07:40:46;4.65;;;1.38;;
20391;SDS011;10355;53.688;10.078;2023-03-14T07:43:28;4.93;;;1.15;;
20391;SDS011;10355;53.688;10.078;2023-03-14T07:46:15;4.25;;;1.10;;
20391;SDS011;10355;53.688;10.078;2023-03-14T07:48:58;2.80;;;0.90;;
20391;SDS011;10355;53.688;10.078;2023-03-14T07:51:41;3.60;;;1.08;;
20391;SDS011;10355;53.688;10.078;2023-03-14T07:54:25;4.00;;;1.05;;
20391;SDS011;10355;53.688;10.078;2023-03-14T07:57:07;3.40;;;0.90;;
20391;SDS011;10355;53.688;10.078;2023-03-14T07:59:50;3.53;;;1.02;;
20391;SDS011;10355;53.688;10.078;2023-03-14T08:02:34;6.50;;;1.25;;
20391;SDS011;10355;53.688;10.078;2023-03-14T08:05:17;4.03;;;1.15;;
20391;SDS011;10355;53.688;10.078;2023-03-14T08:08:00;3.55;;;1.00;;
20391;SDS011;10355;53.688;10.078;2023-03-14T08:10:43;2.58;;;0.98;;
20391;SDS011;10355;53.688;10.078;2023-03-14T08:13:25;3.97;;;1.00;;
20391;SDS011;10355;53.688;10.078;2023-03-14T08:16:08;5.05;;;1.30;;
20391;SDS011;10355;53.688;10.078;2023-03-14T08:18:52;2.15;;;1.08;;
20391;SDS011;10355;53.688;10.078;2023-03-14T08:21:35;4.03;;;1.27;;
20391;SDS011;10355;53.688;10.078;2023-03-14T08:24:18;2.13;;;0.90;;
20391;SDS011;10355;53.688;10.078;2023-03-14T08:27:00;2.83;;;1.00;;
20391;SDS011;10355;53.688;10.078;2023-03-14T08:29:43;2.65;;;0.77;;
20391;SDS011;10355;53.688;10.078;2023-03-14T08:32:26;1.20;;;0.80;;
20391;SDS011;10355;53.688;10.078;2023-03-14T08:35:10;4.30;;;0.90;;
20391;SDS011;10355;53.688;10.078;2023-03-14T08:37:53;3.50;;;0.80;;
20391;SDS011;10355;53.688;10.078;2023-03-14T08:40:37;1.70;;;0.65;;
20391;SDS011;10355;53.688;10.078;2023-03-14T08:43:19;3.47;;;0.80;;
20391;SDS011;10355;53.688;10.078;2023-03-14T08:46:02;1.90;;;0.70;;
20391;SDS011;10355;53.688;10.078;2023-03-14T08:48:45;2.25;;;0.70;;
20391;SDS011;10355;53.688;10.078;2023-03-14T08:51:29;4.47;;;1.27;;
20391;SDS011;10355;53.688;10.078;2023-03-14T08:54:12;2.25;;;0.93;;
20391;SDS011;10355;53.688;10.078;2023-03-14T08:56:55;1.02;;;0.70;;
20391;SDS011;10355;53.688;10.078;2023-03-14T08:59:38;2.35;;;0.93;;
20391;SDS011;10355;53.688;10.078;2023-03-14T09:02:20;5.10;;;1.00;;
20391;SDS011;10355;53.688;10.078;2023-03-14T09:05:03;2.00;;;1.00;;
20391;SDS011;10355;53.688;10.078;2023-03-14T09:07:47;2.08;;;0.90;;
20391;SDS011;10355;53.688;10.078;2023-03-14T09:10:30;2.38;;;1.00;;
20391;SDS011;10355;53.688;10.078;2023-03-14T09:13:13;2.95;;;1.00;;
20391;SDS011;10355;53.688;10.078;2023-03-14T09:15:56;4.13;;;1.08;;
20391;SDS011;10355;53.688;10.078;2023-03-14T09:18:39;2.83;;;1.00;;
20391;SDS011;10355;53.688;10.078;2023-03-14T09:21:21;3.08;;;1.15;;
20391;SDS011;10355;53.688;10.078;2023-03-14T09:24:05;4.00;;;1.25;;
20391;SDS011;10355;53.688;10.078;2023-03-14T09:26:48;3.40;;;1.35;;
20391;SDS011;10355;53.688;10.078;2023-03-14T09:29:31;3.58;;;1.27;;
20391;SDS011;10355;53.688;10.078;2023-03-14T09:32:13;5.45;;;1.23;;
20391;SDS011;10355;53.688;10.078;2023-03-14T09:34:56;5.72;;;1.17;;
20391;SDS011;10355;53.688;10.078;2023-03-14T09:37:39;3.70;;;1.30;;
20391;SDS011;10355;53.688;10.078;2023-03-14T09:40:23;3.25;;;1.40;;
20391;SDS011;10355;53.688;10.078;2023-03-14T09:43:08;3.03;;;1.33;;
20391;SDS011;10355;53.688;10.078;2023-03-14T09:45:52;5.35;;;1.40;;
20391;SDS011;10355;53.688;10.078;2023-03-14T09:48:35;4.15;;;1.42;;
20391;SDS011;10355;53.688;10.078;2023-03-14T09:51:18;3.70;;;1.17;;
20391;SDS011;10355;53.688;10.078;2023-03-14T09:54:03;1.42;;;0.77;;
20391;SDS011;10355;53.688;10.078;2023-03-14T09:56:49;1.08;;;0.45;;
20391;SDS011;10355;53.688;10.078;2023-03-14T09:59:31;1.45;;;0.50;;
20391;SDS011;10355;53.688;10.078;2023-03-14T10:02:17;0.30;;;0.30;;
20391;SDS011;10355;53.688;10.078;2023-03-14T10:05:01;1.83;;;0.45;;
20391;SDS011;10355;53.688;10.078;2023-03-14T10:07:47;0.63;;;0.45;;
20391;SDS011;10355;53.688;10.078;2023-03-14T10:10:31;1.85;;;0.50;;
20391;SDS011;10355;53.688;10.078;2023-03-14T10:13:16;1.27;;;0.50;;
20391;SDS011;10355;53.688;10.078;2023-03-14T10:16:00;1.20;;;0.52;;
20391;SDS011;10355;53.688;10.078;2023-03-14T10:18:44;0.63;;;0.40;;
20391;SDS011;10355;53.688;10.078;2023-03-14T10:21:27;0.80;;;0.40;;
20391;SDS011;10355;53.688;10.078;2023-03-14T10:24:16;0.75;;;0.43;;
20391;SDS011;10355;53.688;10.078;2023-03-14T10:27:02;0.63;;;0.40;;
20391;SDS011;10355;53.688;10.078;2023-03-14T10:29:52;0.43;;;0.40;;
20391;SDS011;10355;53.688;10.078;2023-03-14T10:32:35;0.30;;;0.30;;
20391;SDS011;10355;53.688;10.078;2023-03-14T10:35:19;0.57;;;0.38;;
20391;SDS011;10355;53.688;10.078;2023-03-14T10:38:03;0.38;;;0.30;;
20391;SDS011;10355;53.688;10.078;2023-03-14T10:40:46;0.40;;;0.40;;
20391;SDS011;10355;53.688;10.078;2023-03-14T10:43:31;0.73;;;0.30;;
20391;SDS011;10355;53.688;10.078;2023-03-14T10:46:15;0.20;;;0.20;;
20391;SDS011;10355;53.688;10.078;2023-03-14T10:49:23;0.93;;;0.30;;
20391;SDS011;10355;53.688;10.078;2023-03-14T10:52:14;1.48;;;0.38;;
20391;SDS011;10355;53.688;10.078;2023-03-14T10:54:58;0.60;;;0.38;;
20391;SDS011;10355;53.688;10.078;2023-03-14T10:57:41;1.95;;;0.50;;
20391;SDS011;10355;53.688;10.078;2023-03-14T11:00:24;0.93;;;0.40;;
20391;SDS011;10355;53.688;10.078;2023-03-14T11:03:09;1.63;;;0.40;;
20391;SDS011;10355;53.688;10.078;2023-03-14T11:05:55;0.55;;;0.32;;
20391;SDS011;10355;53.688;10.078;2023-03-14T11:08:40;0.38;;;0.30;;
20391;SDS011;10355;53.688;10.078;2023-03-14T11:11:25;1.13;;;0.40;;
20391;SDS011;10355;53.688;10.078;2023-03-14T11:14:12;0.57;;;0.30;;
20391;SDS011;10355;53.688;10.078;2023-03-14T11:16:58;0.65;;;0.40;;
20391;SDS011;10355;53.688;10.078;2023-03-14T11:19:44;0.85;;;0.52;;
20391;SDS011;10355;53.688;10.078;2023-03-14T11:22:33;0.82;;;0.40;;
20391;SDS011;10355;53.688;10.078;2023-03-14T11:25:21;1.00;;;0.40;;
20391;SDS011;10355;53.688;10.078;2023-03-14T11:28:07;0.55;;;0.30;;
20391;SDS011;10355;53.688;10.078;2023-03-14T11:30:52;1.70;;;0.70;;
20391;SDS011;10355;53.688;10.078;2023-03-14T11:33:36;1.27;;;0.40;;
20391;SDS011;10355;53.688;10.078;2023-03-14T11:36:21;2.33;;;0.50;;
20391;SDS011;10355;53.688;10.078;2023-03-14T11:39:07;1.55;;;0.60;;
20391;SDS011;10355;53.688;10.078;2023-03-14T11:41:52;2.78;;;0.60;;
20391;SDS011;10355;53.688;10.078;2023-03-14T11:44:37;2.40;;;0.50;;
20391;SDS011;10355;53.688;10.078;2023-03-14T11:47:21;2.22;;;0.60;;
20391;SDS011;10355;53.688;10.078;2023-03-14T11:50:08;2.08;;;0.60;;
20391;SDS011;10355;53.688;10.078;2023-03-14T11:52:56;2.63;;;0.50;;
20391;SDS011;10355;53.688;10.078;2023-03-14T11:55:41;4.32;;;0.40;;
20391;SDS011;10355;53.688;10.078;2023-03-14T11:58:25;3.78;;;0.65;;
20391;SDS011;10355;53.688;10.078;2023-03-14T12:01:09;2.83;;;0.70;;
20391;SDS011;10355;53.688;10.078;2023-03-14T12:03:55;1.77;;;0.70;;
20391;SDS011;10355;53.688;10.078;2023-03-14T12:06:44;5.32;;;0.93;;
20391;SDS011;10355;53.688;10.078;2023-03-14T12:09:29;2.55;;;0.70;;
20391;SDS011;10355;53.688;10.078;2023-03-14T12:12:12;1.90;;;0.57;;
20391;SDS011;10355;53.688;10.078;2023-03-14T12:14:56;4.25;;;0.82;;
20391;SDS011;10355;53.688;10.078;2023-03-14T12:17:40;3.85;;;0.90;;
20391;SDS011;10355;53.688;10.078;2023-03-14T12:20:24;4.88;;;0.85;;
20391;SDS011;10355;53.688;10.078;2023-03-14T12:23:10;2.22;;;0.70;;
20391;SDS011;10355;53.688;10.078;2023-03-14T12:26:08;2.78;;;0.73;;
20391;SDS011;10355;53.688;10.078;2023-03-14T12:29:09;1.55;;;0.60;;
20391;SDS011;10355;53.688;10.078;2023-03-14T12:32:21;4.05;;;1.00;;
20391;SDS011;10355;53.688;10.078;2023-03-14T12:35:07;4.68;;;0.88;;
20391;SDS011;10355;53.688;10.078;2023-03-14T12:37:49;3.53;;;0.95;;
20391;SDS011;10355;53.688;10.078;2023-03-14T12:40:34;3.55;;;0.82;;
20391;SDS011;10355;53.688;10.078;2023-03-14T12:43:26;2.85;;;0.70;;
20391;SDS011;10355;53.688;10.078;2023-03-14T12:46:15;3.50;;;0.82;;
20391;SDS011;10355;53.688;10.078;2023-03-14T12:49:03;3.65;;;1.02;;
20391;SDS011;10355;53.688;10.078;2023-03-14T12:51:47;6.07;;;1.00;;
20391;SDS011;10355;53.688;10.078;2023-03-14T12:54:33;3.70;;;0.70;;
20391;SDS011;10355;53.688;10.078;2023-03-14T12:57:24;3.55;;;1.00;;
20391;SDS011;10355;53.688;10.078;2023-03-14T13:00:17;6.20;;;0.93;;
20391;SDS011;10355;53.688;10.078;2023-03-14T13:03:01;3.70;;;0.82;;
20391;SDS011;10355;53.688;10.078;2023-03-14T13:05:52;4.82;;;1.00;;
20391;SDS011;10355;53.688;10.078;2023-03-14T13:08:36;4.22;;;1.08;;
20391;SDS011;10355;53.688;10.078;2023-03-14T13:11:21;3.63;;;0.90;;
20391;SDS011;10355;53.688;10.078;2023-03-14T13:14:07;5.93;;;1.02;;
20391;SDS011;10355;53.688;10.078;2023-03-14T13:16:52;4.65;;;0.90;;
20391;SDS011;10355;53.688;10.078;2023-03-14T13:19:35;2.72;;;0.90;;
20391;SDS011;10355;53.688;10.078;2023-03-14T13:22:22;4.57;;;0.98;;
20391;SDS011;10355;53.688;10.078;2023-03-14T13:25:07;4.70;;;1.02;;
20391;SDS011;10355;53.688;10.078;2023-03-14T13:27:52;5.78;;;1.08;;
20391;SDS011;10355;53.688;10.078;2023-03-14T13:30:39;7.07;;;1.10;;
20391;SDS011;10355;53.688;10.078;2023-03-14T13:33:24;9.90;;;1.13;;
20391;SDS011;10355;53.688;10.078;2023-03-14T13:36:08;3.95;;;1.00;;
20391;SDS011;10355;53.688;10.078;2023-03-14T13:38:55;6.78;;;1.25;;
20391;SDS011;10355;53.688;10.078;2023-03-14T13:41:38;7.53;;;1.30;;
20391;SDS011;10355;53.688;10.078;2023-03-14T13:44:23;3.60;;;1.10;;
20391;SDS011;10355;53.688;10.078;2023-03-14T13:47:10;4.93;;;0.82;;
20391;SDS011;10355;53.688;10.078;2023-03-14T13:49:55;3.05;;;0.60;;
20391;SDS011;10355;53.688;10.078;2023-03-14T13:52:38;6.80;;;1.05;;
20391;SDS011;10355;53.688;10.078;2023-03-14T13:55:20;7.43;;;1.20;;
20391;SDS011;10355;53.688;10.078;2023-03-14T13:58:03;4.70;;;1.00;;
20391;SDS011;10355;53.688;10.078;2023-03-14T14:00:52;5.70;;;1.15;;
20391;SDS011;10355;53.688;10.078;2023-03-14T14:03:37;5.95;;;0.93;;
20391;SDS011;10355;53.688;10.078;2023-03-14T14:06:28;8.43;;;0.93;;
20391;SDS011;10355;53.688;10.078;2023-03-14T14:09:12;6.70;;;1.33;;
20391;SDS011;10355;53.688;10.078;2023-03-14T14:11:59;3.95;;;1.00;;
20391;SDS011;10355;53.688;10.078;2023-03-14T14:14:57;4.25;;;0.85;;
20391;SDS011;10355;53.688;10.078;2023-03-14T14:17:41;5.57;;;1.33;;
20391;SDS011;10355;53.688;10.078;2023-03-14T14:20:26;5.25;;;1.33;;
20391;SDS011;10355;53.688;10.078;2023-03-14T14:23:15;2.83;;;1.17;;
20391;SDS011;10355;53.688;10.078;2023-03-14T14:25:59;4.43;;;1.00;;
20391;SDS011;10355;53.688;10.078;2023-03-14T14:28:42;4.43;;;1.10;;
20391;SDS011;10355;53.688;10.078;2023-03-14T14:31:24;5.93;;;1.08;;
20391;SDS011;10355;53.688;10.078;2023-03-14T14:34:17;3.72;;;1.00;;
20391;SDS011;10355;53.688;10.078;2023-03-14T14:37:00;6.22;;;1.02;;
20391;SDS011;10355;53.688;10.078;2023-03-14T14:39:44;3.80;;;0.90;;
20391;SDS011;10355;53.688;10.078;2023-03-14T14:42:28;6.53;;;1.05;;
20391;SDS011;10355;53.688;10.078;2023-03-14T14:45:12;3.65;;;1.10;;
20391;SDS011;10355;53.688;10.078;2023-03-14T14:47:57;3.30;;;0.88;;
20391;SDS011;10355;53.688;10.078;2023-03-14T14:50:48;4.03;;;1.10;;
20391;SDS011;10355;53.688;10.078;2023-03-14T14:53:35;2.38;;;0.90;;
20391;SDS011;10355;53.688;10.078;2023-03-14T14:56:20;5.00;;;0.80;;
20391;SDS011;10355;53.688;10.078;2023-03-14T14:59:18;8.20;;;1.15;;
20391;SDS011;10355;53.688;10.078;2023-03-14T15:02:02;3.00;;;0.82;;
20391;SDS011;10355;53.688;10.078;2023-03-14T15:04:46;3.30;;;0.77;;
20391;SDS011;10355;53.688;10.078;2023-03-14T15:07:29;4.13;;;1.02;;
20391;SDS011;10355;53.688;10.078;2023-03-14T15:10:13;4.75;;;0.93;;
20391;SDS011;10355;53.688;10.078;2023-03-14T15:12:57;4.88;;;1.20;;
20391;SDS011;10355;53.688;10.078;2023-03-14T15:15:40;6.57;;;1.08;;
20391;SDS011;10355;53.688;10.078;2023-03-14T15:18:24;6.82;;;1.00;;
20391;SDS011;10355;53.688;10.078;2023-03-14T15:21:10;3.63;;;0.88;;
20391;SDS011;10355;53.688;10.078;2023-03-14T15:23:53;5.00;;;0.95;;
20391;SDS011;10355;53.688;10.078;2023-03-14T15:26:36;4.90;;;0.70;;
20391;SDS011;10355;53.688;10.078;2023-03-14T15:29:20;5.03;;;1.10;;
20391;SDS011;10355;53.688;10.078;2023-03-14T15:32:03;4.07;;;0.90;;
20391;SDS011;10355;53.688;10.078;2023-03-14T15:34:46;4.18;;;0.85;;
20391;SDS011;10355;53.688;10.078;2023-03-14T15:37:28;9.85;;;1.30;;
20391;SDS011;10355;53.688;10.078;2023-03-14T15:40:12;7.03;;;1.02;;
20391;SDS011;10355;53.688;10.078;2023-03-14T15:42:55;9.88;;;1.20;;
20391;SDS011;10355;53.688;10.078;2023-03-14T15:45:39;4.30;;;1.17;;
20391;SDS011;10355;53.688;10.078;2023-03-14T15:48:22;6.38;;;0.90;;
20391;SDS011;10355;53.688;10.078;2023-03-14T15:51:05;5.72;;;1.40;;
20391;SDS011;10355;53.688;10.078;2023-03-14T15:53:48;4.13;;;0.93;;
20391;SDS011;10355;53.688;10.078;2023-03-14T15:56:30;4.90;;;0.90;;
20391;SDS011;10355;53.688;10.078;2023-03-14T15:59:13;5.53;;;0.93;;
20391;SDS011;10355;53.688;10.078;2023-03-14T16:01:57;5.45;;;0.90;;
20391;SDS011;10355;53.688;10.078;2023-03-14T16:04:40;7.90;;;1.20;;
20391;SDS011;10355;53.688;10.078;2023-03-14T16:07:23;5.20;;;1.02;;
20391;SDS011;10355;53.688;10.078;2023-03-14T16:10:06;3.72;;;1.10;;
20391;SDS011;10355;53.688;10.078;2023-03-14T16:12:49;9.27;;;1.17;;
20391;SDS011;10355;53.688;10.078;2023-03-14T16:15:32;4.25;;;0.98;;
20391;SDS011;10355;53.688;10.078;2023-03-14T16:18:16;6.28;;;0.95;;
20391;SDS011;10355;53.688;10.078;2023-03-14T16:21:03;6.68;;;1.10;;
20391;SDS011;10355;53.688;10.078;2023-03-14T16:23:47;8.48;;;1.08;;
20391;SDS011;10355;53.688;10.078;2023-03-14T16:26:30;6.72;;;1.20;;